Terminal Aerodrome Forecast
Issued by NWS Cleveland, OH

Home | Current Version | Previous Version | Graphics & Text | Print | Product List | Glossary Off
Versions: 1 2 3 4 5 6 7 8 9 10 11 12 13 14 15 16 17 18 19 20

000
FTUS41 KCLE 161740
TAFYNG
TAF
KYNG 161740Z 1618/1718 24010KT P6SM SCT030 OVC050
      TEMPO 1618/1620 4SM -SN BR OVC030
     FM162000 26006KT P6SM SCT035 BKN080
     FM162200 VRB04KT P6SM SCT080
     FM170700 13004KT 5SM BR SCT009 BKN200
     FM171000 13004KT 4SM BR OVC009
     FM171600 15006KT P6SM BKN012=

USA.gov is the U.S. government's official web portal to all federal, state and local government web resources and services.